sensor_id;sensor_type;location;lat;lon;timestamp;temperature;humidity
68556;HTU21D;55544;51.032;5.866;2024-03-02T00:02:13;10.95;62.08
68556;HTU21D;55544;51.032;5.866;2024-03-02T00:04:39;10.94;62.15
68556;HTU21D;55544;51.032;5.866;2024-03-02T00:07:06;11.03;62.07
68556;HTU21D;55544;51.032;5.866;2024-03-02T00:09:32;11.05;61.47
68556;HTU21D;55544;51.032;5.866;2024-03-02T00:12:00;11.02;61.81
68556;HTU21D;55544;51.032;5.866;2024-03-02T00:14:29;11.11;61.79
68556;HTU21D;55544;51.032;5.866;2024-03-02T00:16:56;11.11;61.79
68556;HTU21D;55544;51.032;5.866;2024-03-02T00:19:22;11.11;61.51
68556;HTU21D;55544;51.032;5.866;2024-03-02T00:21:48;11.10;61.84
68556;HTU21D;55544;51.032;5.866;2024-03-02T00:24:28;11.09;61.87
68556;HTU21D;55544;51.032;5.866;2024-03-02T00:26:55;11.08;61.76
68556;HTU21D;55544;51.032;5.866;2024-03-02T00:29:21;11.05;61.83
68556;HTU21D;55544;51.032;5.866;2024-03-02T00:31:47;11.07;61.92
68556;HTU21D;55544;51.032;5.866;2024-03-02T00:34:14;10.95;62.03
68556;HTU21D;55544;51.032;5.866;2024-03-02T00:36:41;11.09;62.21
68556;HTU21D;55544;51.032;5.866;2024-03-02T00:39:07;11.05;62.01
68556;HTU21D;55544;51.032;5.866;2024-03-02T00:41:34;11.13;62.08
68556;HTU21D;55544;51.032;5.866;2024-03-02T00:44:02;11.19;62.00
68556;HTU21D;55544;51.032;5.866;2024-03-02T00:46:40;11.24;62.21
68556;HTU21D;55544;51.032;5.866;2024-03-02T00:49:22;11.15;62.31
68556;HTU21D;55544;51.032;5.866;2024-03-02T00:51:50;11.17;62.28
68556;HTU21D;55544;51.032;5.866;2024-03-02T00:54:24;11.23;62.29
68556;HTU21D;55544;51.032;5.866;2024-03-02T00:56:52;11.11;62.54
68556;HTU21D;55544;51.032;5.866;2024-03-02T00:59:18;11.13;62.65
68556;HTU21D;55544;51.032;5.866;2024-03-02T01:01:43;11.20;62.46
68556;HTU21D;55544;51.032;5.866;2024-03-02T01:04:09;11.13;62.85
68556;HTU21D;55544;51.032;5.866;2024-03-02T01:06:35;11.18;63.05
68556;HTU21D;55544;51.032;5.866;2024-03-02T01:09:01;11.32;63.02
68556;HTU21D;55544;51.032;5.866;2024-03-02T01:11:28;11.24;63.95
68556;HTU21D;55544;51.032;5.866;2024-03-02T01:13:54;11.13;66.55
68556;HTU21D;55544;51.032;5.866;2024-03-02T01:16:19;10.93;69.08
68556;HTU21D;55544;51.032;5.866;2024-03-02T01:18:45;10.69;69.81
68556;HTU21D;55544;51.032;5.866;2024-03-02T01:21:11;10.43;71.07
68556;HTU21D;55544;51.032;5.866;2024-03-02T01:23:37;10.30;71.79
68556;HTU21D;55544;51.032;5.866;2024-03-02T01:26:03;10.09;73.02
68556;HTU21D;55544;51.032;5.866;2024-03-02T01:28:29;9.98;73.61
68556;HTU21D;55544;51.032;5.866;2024-03-02T01:30:54;9.91;74.41
68556;HTU21D;55544;51.032;5.866;2024-03-02T01:33:20;9.93;74.92
68556;HTU21D;55544;51.032;5.866;2024-03-02T01:35:47;9.80;75.62
68556;HTU21D;55544;51.032;5.866;2024-03-02T01:38:13;9.78;75.79
68556;HTU21D;55544;51.032;5.866;2024-03-02T01:40:39;9.78;75.97
68556;HTU21D;55544;51.032;5.866;2024-03-02T01:43:06;9.74;76.21
68556;HTU21D;55544;51.032;5.866;2024-03-02T01:45:33;9.74;76.75
68556;HTU21D;55544;51.032;5.866;2024-03-02T01:47:59;9.70;76.71
68556;HTU21D;55544;51.032;5.866;2024-03-02T01:50:30;9.66;76.76
68556;HTU21D;55544;51.032;5.866;2024-03-02T01:52:56;9.69;76.38
68556;HTU21D;55544;51.032;5.866;2024-03-02T01:55:22;9.66;75.95
68556;HTU21D;55544;51.032;5.866;2024-03-02T01:57:49;9.65;74.80
68556;HTU21D;55544;51.032;5.866;2024-03-02T02:00:16;9.53;74.69
68556;HTU21D;55544;51.032;5.866;2024-03-02T02:02:43;9.41;74.58
68556;HTU21D;55544;51.032;5.866;2024-03-02T02:05:09;9.45;74.21
68556;HTU21D;55544;51.032;5.866;2024-03-02T02:07:36;9.33;74.97
68556;HTU21D;55544;51.032;5.866;2024-03-02T02:10:02;9.35;74.94
68556;HTU21D;55544;51.032;5.866;2024-03-02T02:12:28;9.29;75.00
68556;HTU21D;55544;51.032;5.866;2024-03-02T02:14:54;9.27;75.30
68556;HTU21D;55544;51.032;5.866;2024-03-02T02:17:20;9.17;75.57
68556;HTU21D;55544;51.032;5.866;2024-03-02T02:19:46;9.27;75.34
68556;HTU21D;55544;51.032;5.866;2024-03-02T02:22:11;9.12;75.67
68556;HTU21D;55544;51.032;5.866;2024-03-02T02:24:41;9.07;75.82
68556;HTU21D;55544;51.032;5.866;2024-03-02T02:27:10;8.96;76.44
68556;HTU21D;55544;51.032;5.866;2024-03-02T02:29:36;8.94;76.89
68556;HTU21D;55544;51.032;5.866;2024-03-02T02:32:02;8.97;77.05
68556;HTU21D;55544;51.032;5.866;2024-03-02T02:34:28;8.93;77.56
68556;HTU21D;55544;51.032;5.866;2024-03-02T02:36:54;8.82;78.15
68556;HTU21D;55544;51.032;5.866;2024-03-02T02:39:21;8.82;77.91
68556;HTU21D;55544;51.032;5.866;2024-03-02T02:41:50;8.78;78.08
68556;HTU21D;55544;51.032;5.866;2024-03-02T02:44:16;8.86;77.56
68556;HTU21D;55544;51.032;5.866;2024-03-02T02:46:41;8.75;77.50
68556;HTU21D;55544;51.032;5.866;2024-03-02T02:49:07;8.72;77.92
68556;HTU21D;55544;51.032;5.866;2024-03-02T02:51:33;8.78;77.41
68556;HTU21D;55544;51.032;5.866;2024-03-02T02:53:59;8.65;77.41
68556;HTU21D;55544;51.032;5.866;2024-03-02T02:56:25;8.72;77.08
68556;HTU21D;55544;51.032;5.866;2024-03-02T02:58:51;8.74;77.27
68556;HTU21D;55544;51.032;5.866;2024-03-02T03:01:16;8.77;76.71
68556;HTU21D;55544;51.032;5.866;2024-03-02T03:03:44;8.83;77.00
68556;HTU21D;55544;51.032;5.866;2024-03-02T03:06:10;8.88;76.22
68556;HTU21D;55544;51.032;5.866;2024-03-02T03:08:36;8.83;76.68
68556;HTU21D;55544;51.032;5.866;2024-03-02T03:11:02;8.88;76.89
68556;HTU21D;55544;51.032;5.866;2024-03-02T03:13:27;8.90;76.82
68556;HTU21D;55544;51.032;5.866;2024-03-02T03:15:53;8.81;76.76
68556;HTU21D;55544;51.032;5.866;2024-03-02T03:18:19;8.93;76.79
68556;HTU21D;55544;51.032;5.866;2024-03-02T03:20:45;8.82;77.18
68556;HTU21D;55544;51.032;5.866;2024-03-02T03:23:11;8.83;77.23
68556;HTU21D;55544;51.032;5.866;2024-03-02T03:25:41;8.87;77.21
68556;HTU21D;55544;51.032;5.866;2024-03-02T03:28:07;8.91;76.89
68556;HTU21D;55544;51.032;5.866;2024-03-02T03:30:37;8.90;77.25
68556;HTU21D;55544;51.032;5.866;2024-03-02T03:33:03;8.81;77.70
68556;HTU21D;55544;51.032;5.866;2024-03-02T03:35:29;8.90;77.34
68556;HTU21D;55544;51.032;5.866;2024-03-02T03:37:54;8.90;77.69
68556;HTU21D;55544;51.032;5.866;2024-03-02T03:40:20;8.92;77.74
68556;HTU21D;55544;51.032;5.866;2024-03-02T03:42:46;8.95;77.39
68556;HTU21D;55544;51.032;5.866;2024-03-02T03:45:11;8.90;77.88
68556;HTU21D;55544;51.032;5.866;2024-03-02T03:47:37;8.93;77.60
68556;HTU21D;55544;51.032;5.866;2024-03-02T03:50:03;8.91;77.69
68556;HTU21D;55544;51.032;5.866;2024-03-02T03:52:32;8.90;77.93
68556;HTU21D;55544;51.032;5.866;2024-03-02T03:54:59;8.90;77.82
68556;HTU21D;55544;51.032;5.866;2024-03-02T03:57:26;8.93;78.01
68556;HTU21D;55544;51.032;5.866;2024-03-02T03:59:52;8.98;77.80
68556;HTU21D;55544;51.032;5.866;2024-03-02T04:02:18;8.95;77.82
68556;HTU21D;55544;51.032;5.866;2024-03-02T04:04:44;8.92;77.86
68556;HTU21D;55544;51.032;5.866;2024-03-02T04:07:09;8.97;78.00
68556;HTU21D;55544;51.032;5.866;2024-03-02T04:09:35;8.92;78.24
68556;HTU21D;55544;51.032;5.866;2024-03-02T04:12:00;8.91;78.23
68556;HTU21D;55544;51.032;5.866;2024-03-02T04:14:26;8.94;78.33
68556;HTU21D;55544;51.032;5.866;2024-03-02T04:16:52;8.89;78.27
68556;HTU21D;55544;51.032;5.866;2024-03-02T04:19:18;8.93;78.40
68556;HTU21D;55544;51.032;5.866;2024-03-02T04:21:43;8.94;78.49
68556;HTU21D;55544;51.032;5.866;2024-03-02T04:24:09;8.91;78.48
68556;HTU21D;55544;51.032;5.866;2024-03-02T04:26:35;8.95;78.36
68556;HTU21D;55544;51.032;5.866;2024-03-02T04:29:00;8.90;78.48
68556;HTU21D;55544;51.032;5.866;2024-03-02T04:31:27;8.80;78.74
68556;HTU21D;55544;51.032;5.866;2024-03-02T04:33:53;8.79;78.96
68556;HTU21D;55544;51.032;5.866;2024-03-02T04:36:19;8.82;78.75
68556;HTU21D;55544;51.032;5.866;2024-03-02T04:38:45;8.78;78.93
68556;HTU21D;55544;51.032;5.866;2024-03-02T04:41:11;8.85;78.99
68556;HTU21D;55544;51.032;5.866;2024-03-02T04:43:37;8.82;78.86
68556;HTU21D;55544;51.032;5.866;2024-03-02T04:46:02;8.82;78.70
68556;HTU21D;55544;51.032;5.866;2024-03-02T04:48:28;8.92;78.08
68556;HTU21D;55544;51.032;5.866;2024-03-02T04:50:54;8.81;77.39
68556;HTU21D;55544;51.032;5.866;2024-03-02T04:53:19;8.91;77.54
68556;HTU21D;55544;51.032;5.866;2024-03-02T04:55:45;8.91;77.11
68556;HTU21D;55544;51.032;5.866;2024-03-02T04:58:30;8.90;77.18
68556;HTU21D;55544;51.032;5.866;2024-03-02T05:00:55;8.95;77.04
68556;HTU21D;55544;51.032;5.866;2024-03-02T05:03:22;9.07;76.57
68556;HTU21D;55544;51.032;5.866;2024-03-02T05:05:47;9.03;76.52
68556;HTU21D;55544;51.032;5.866;2024-03-02T05:08:13;8.91;76.65
68556;HTU21D;55544;51.032;5.866;2024-03-02T05:10:39;8.93;76.60
68556;HTU21D;55544;51.032;5.866;2024-03-02T05:13:04;8.98;76.37
68556;HTU21D;55544;51.032;5.866;2024-03-02T05:15:30;8.97;76.18
68556;HTU21D;55544;51.032;5.866;2024-03-02T05:17:56;9.00;75.96
68556;HTU21D;55544;51.032;5.866;2024-03-02T05:20:23;9.06;75.60
68556;HTU21D;55544;51.032;5.866;2024-03-02T05:22:48;9.08;75.79
68556;HTU21D;55544;51.032;5.866;2024-03-02T05:25:15;9.11;75.64
68556;HTU21D;55544;51.032;5.866;2024-03-02T05:27:40;9.19;75.66
68556;HTU21D;55544;51.032;5.866;2024-03-02T05:30:07;9.26;75.28
68556;HTU21D;55544;51.032;5.866;2024-03-02T05:32:33;9.26;75.26
68556;HTU21D;55544;51.032;5.866;2024-03-02T05:34:59;9.23;75.32
68556;HTU21D;55544;51.032;5.866;2024-03-02T05:37:25;9.21;75.19
68556;HTU21D;55544;51.032;5.866;2024-03-02T05:39:50;9.19;75.07
68556;HTU21D;55544;51.032;5.866;2024-03-02T05:42:16;9.19;74.96
68556;HTU21D;55544;51.032;5.866;2024-03-02T05:44:45;9.25;75.19
68556;HTU21D;55544;51.032;5.866;2024-03-02T05:47:10;9.22;75.25
68556;HTU21D;55544;51.032;5.866;2024-03-02T05:49:36;9.21;74.89
68556;HTU21D;55544;51.032;5.866;2024-03-02T05:52:02;9.16;74.72
68556;HTU21D;55544;51.032;5.866;2024-03-02T05:54:28;9.17;74.70
68556;HTU21D;55544;51.032;5.866;2024-03-02T05:56:54;9.24;74.67
68556;HTU21D;55544;51.032;5.866;2024-03-02T05:59:20;9.27;74.17
68556;HTU21D;55544;51.032;5.866;2024-03-02T06:01:46;9.29;74.16
68556;HTU21D;55544;51.032;5.866;2024-03-02T06:04:14;9.25;73.96
68556;HTU21D;55544;51.032;5.866;2024-03-02T06:06:40;9.23;73.89
68556;HTU21D;55544;51.032;5.866;2024-03-02T06:09:07;9.22;73.93
68556;HTU21D;55544;51.032;5.866;2024-03-02T06:11:39;9.20;73.61
68556;HTU21D;55544;51.032;5.866;2024-03-02T06:14:07;9.15;73.70
68556;HTU21D;55544;51.032;5.866;2024-03-02T06:16:33;9.11;73.87
68556;HTU21D;55544;51.032;5.866;2024-03-02T06:18:59;9.12;73.61
68556;HTU21D;55544;51.032;5.866;2024-03-02T06:21:25;9.09;73.51
68556;HTU21D;55544;51.032;5.866;2024-03-02T06:23:52;9.10;73.25
68556;HTU21D;55544;51.032;5.866;2024-03-02T06:26:18;9.09;72.98
68556;HTU21D;55544;51.032;5.866;2024-03-02T06:28:44;9.11;73.02
68556;HTU21D;55544;51.032;5.866;2024-03-02T06:31:10;9.10;72.60
68556;HTU21D;55544;51.032;5.866;2024-03-02T06:33:36;9.03;72.81
68556;HTU21D;55544;51.032;5.866;2024-03-02T06:36:02;9.03;72.71
68556;HTU21D;55544;51.032;5.866;2024-03-02T06:38:28;8.92;73.00
68556;HTU21D;55544;51.032;5.866;2024-03-02T06:40:54;8.93;72.87
68556;HTU21D;55544;51.032;5.866;2024-03-02T06:43:21;8.88;72.85
68556;HTU21D;55544;51.032;5.866;2024-03-02T06:45:50;8.87;72.90
68556;HTU21D;55544;51.032;5.866;2024-03-02T06:48:16;8.85;72.67
68556;HTU21D;55544;51.032;5.866;2024-03-02T06:50:50;8.87;72.68
68556;HTU21D;55544;51.032;5.866;2024-03-02T06:53:16;8.80;72.56
68556;HTU21D;55544;51.032;5.866;2024-03-02T06:55:46;8.83;72.36
68556;HTU21D;55544;51.032;5.866;2024-03-02T06:58:12;8.83;72.74
68556;HTU21D;55544;51.032;5.866;2024-03-02T07:00:40;8.78;72.42
68556;HTU21D;55544;51.032;5.866;2024-03-02T07:03:06;8.75;73.03
68556;HTU21D;55544;51.032;5.866;2024-03-02T07:05:32;8.76;73.30
68556;HTU21D;55544;51.032;5.866;2024-03-02T07:07:58;8.73;73.10
68556;HTU21D;55544;51.032;5.866;2024-03-02T07:10:23;8.75;73.19
68556;HTU21D;55544;51.032;5.866;2024-03-02T07:12:49;8.78;73.28
68556;HTU21D;55544;51.032;5.866;2024-03-02T07:15:15;8.80;73.07
68556;HTU21D;55544;51.032;5.866;2024-03-02T07:17:53;8.83;73.12
68556;HTU21D;55544;51.032;5.866;2024-03-02T07:20:18;8.90;73.12
68556;HTU21D;55544;51.032;5.866;2024-03-02T07:22:44;8.93;72.96
68556;HTU21D;55544;51.032;5.866;2024-03-02T07:25:10;9.06;72.83
68556;HTU21D;55544;51.032;5.866;2024-03-02T07:27:36;9.10;72.85
68556;HTU21D;55544;51.032;5.866;2024-03-02T07:30:05;9.19;72.36
68556;HTU21D;55544;51.032;5.866;2024-03-02T07:32:31;9.27;72.34
68556;HTU21D;55544;51.032;5.866;2024-03-02T07:34:57;9.33;72.00
68556;HTU21D;55544;51.032;5.866;2024-03-02T07:37:24;9.32;71.62
68556;HTU21D;55544;51.032;5.866;2024-03-02T07:39:50;9.44;71.80
68556;HTU21D;55544;51.032;5.866;2024-03-02T07:42:17;9.40;71.47
68556;HTU21D;55544;51.032;5.866;2024-03-02T07:44:44;9.41;71.84
68556;HTU21D;55544;51.032;5.866;2024-03-02T07:47:10;9.53;70.37
68556;HTU21D;55544;51.032;5.866;2024-03-02T07:49:36;9.61;70.74
68556;HTU21D;55544;51.032;5.866;2024-03-02T07:52:02;9.66;70.84
68556;HTU21D;55544;51.032;5.866;2024-03-02T07:54:28;9.69;70.67
68556;HTU21D;55544;51.032;5.866;2024-03-02T07:56:54;9.62;70.25
68556;HTU21D;55544;51.032;5.866;2024-03-02T07:59:20;9.69;70.34
68556;HTU21D;55544;51.032;5.866;2024-03-02T08:01:49;9.88;69.55
68556;HTU21D;55544;51.032;5.866;2024-03-02T08:04:15;10.06;69.14
68556;HTU21D;55544;51.032;5.866;2024-03-02T08:06:41;10.83;68.12
68556;HTU21D;55544;51.032;5.866;2024-03-02T08:09:07;11.66;65.94
68556;HTU21D;55544;51.032;5.866;2024-03-02T08:11:35;12.13;65.22
68556;HTU21D;55544;51.032;5.866;2024-03-02T08:14:01;11.94;65.52
68556;HTU21D;55544;51.032;5.866;2024-03-02T08:16:27;11.88;64.81
68556;HTU21D;55544;51.032;5.866;2024-03-02T08:18:53;11.42;64.07
68556;HTU21D;55544;51.032;5.866;2024-03-02T08:21:19;11.12;65.65
68556;HTU21D;55544;51.032;5.866;2024-03-02T08:23:45;10.84;65.98
68556;HTU21D;55544;51.032;5.866;2024-03-02T08:26:11;10.53;66.87
68556;HTU21D;55544;51.032;5.866;2024-03-02T08:28:37;10.49;68.04
68556;HTU21D;55544;51.032;5.866;2024-03-02T08:31:04;10.46;67.44
68556;HTU21D;55544;51.032;5.866;2024-03-02T08:33:30;10.51;67.33
68556;HTU21D;55544;51.032;5.866;2024-03-02T08:35:56;10.36;67.88
68556;HTU21D;55544;51.032;5.866;2024-03-02T08:38:22;10.40;67.97
68556;HTU21D;55544;51.032;5.866;2024-03-02T08:40:49;10.44;67.72
68556;HTU21D;55544;51.032;5.866;2024-03-02T08:43:15;10.30;66.98
68556;HTU21D;55544;51.032;5.866;2024-03-02T08:45:41;10.45;67.62
68556;HTU21D;55544;51.032;5.866;2024-03-02T08:48:08;10.43;67.95
68556;HTU21D;55544;51.032;5.866;2024-03-02T08:50:36;10.59;67.78
68556;HTU21D;55544;51.032;5.866;2024-03-02T08:53:03;10.59;66.37
68556;HTU21D;55544;51.032;5.866;2024-03-02T08:55:29;10.68;66.89
68556;HTU21D;55544;51.032;5.866;2024-03-02T08:57:55;10.81;66.14
68556;HTU21D;55544;51.032;5.866;2024-03-02T09:00:22;10.72;64.29
68556;HTU21D;55544;51.032;5.866;2024-03-02T09:02:48;10.73;65.11
68556;HTU21D;55544;51.032;5.866;2024-03-02T09:05:14;10.89;65.33
68556;HTU21D;55544;51.032;5.866;2024-03-02T09:07:39;10.92;65.96
68556;HTU21D;55544;51.032;5.866;2024-03-02T09:10:06;10.97;65.82
68556;HTU21D;55544;51.032;5.866;2024-03-02T09:12:32;11.08;65.28
68556;HTU21D;55544;51.032;5.866;2024-03-02T09:14:59;11.20;64.20
68556;HTU21D;55544;51.032;5.866;2024-03-02T09:17:25;11.26;64.28
68556;HTU21D;55544;51.032;5.866;2024-03-02T09:19:51;11.30;64.33
68556;HTU21D;55544;51.032;5.866;2024-03-02T09:22:18;11.37;62.08
68556;HTU21D;55544;51.032;5.866;2024-03-02T09:24:44;11.49;63.74
68556;HTU21D;55544;51.032;5.866;2024-03-02T09:27:10;11.64;61.96
68556;HTU21D;55544;51.032;5.866;2024-03-02T09:29:36;11.70;62.48
68556;HTU21D;55544;51.032;5.866;2024-03-02T09:32:02;11.68;61.80
68556;HTU21D;55544;51.032;5.866;2024-03-02T09:34:28;11.64;61.93
68556;HTU21D;55544;51.032;5.866;2024-03-02T09:36:53;11.55;61.12
68556;HTU21D;55544;51.032;5.866;2024-03-02T09:39:19;11.47;60.67
68556;HTU21D;55544;51.032;5.866;2024-03-02T09:41:45;11.47;62.38
68556;HTU21D;55544;51.032;5.866;2024-03-02T09:44:12;11.56;60.47
68556;HTU21D;55544;51.032;5.866;2024-03-02T09:46:38;11.54;61.43
68556;HTU21D;55544;51.032;5.866;2024-03-02T09:49:04;11.61;61.51
68556;HTU21D;55544;51.032;5.866;2024-03-02T09:51:31;11.79;60.14
68556;HTU21D;55544;51.032;5.866;2024-03-02T09:53:57;11.75;60.54
68556;HTU21D;55544;51.032;5.866;2024-03-02T09:56:22;11.84;60.86
68556;HTU21D;55544;51.032;5.866;2024-03-02T09:58:49;11.97;61.58
68556;HTU21D;55544;51.032;5.866;2024-03-02T10:01:14;12.11;60.88
68556;HTU21D;55544;51.032;5.866;2024-03-02T10:03:40;12.13;61.76
68556;HTU21D;55544;51.032;5.866;2024-03-02T10:06:26;12.27;59.55
68556;HTU21D;55544;51.032;5.866;2024-03-02T10:08:53;12.29;59.18
68556;HTU21D;55544;51.032;5.866;2024-03-02T10:11:31;12.27;58.19
68556;HTU21D;55544;51.032;5.866;2024-03-02T10:14:12;12.31;58.85
68556;HTU21D;55544;51.032;5.866;2024-03-02T10:16:40;12.31;60.29
68556;HTU21D;55544;51.032;5.866;2024-03-02T10:19:23;12.58;59.10
68556;HTU21D;55544;51.032;5.866;2024-03-02T10:21:50;12.75;57.84
68556;HTU21D;55544;51.032;5.866;2024-03-02T10:24:20;12.69;57.27
68556;HTU21D;55544;51.032;5.866;2024-03-02T10:26:47;12.77;58.34
68556;HTU21D;55544;51.032;5.866;2024-03-02T10:29:13;12.90;57.36
68556;HTU21D;55544;51.032;5.866;2024-03-02T10:31:41;12.95;55.90
68556;HTU21D;55544;51.032;5.866;2024-03-02T10:34:08;12.85;57.36
68556;HTU21D;55544;51.032;5.866;2024-03-02T10:36:35;12.84;56.74
68556;HTU21D;55544;51.032;5.866;2024-03-02T10:39:05;12.93;56.72
68556;HTU21D;55544;51.032;5.866;2024-03-02T10:41:36;12.97;56.46
68556;HTU21D;55544;51.032;5.866;2024-03-02T10:44:06;13.00;56.58
68556;HTU21D;55544;51.032;5.866;2024-03-02T10:46:35;13.08;56.40
68556;HTU21D;55544;51.032;5.866;2024-03-02T10:49:02;13.20;56.29
68556;HTU21D;55544;51.032;5.866;2024-03-02T10:51:33;13.14;54.83
68556;HTU21D;55544;51.032;5.866;2024-03-02T10:54:03;13.25;54.96
68556;HTU21D;55544;51.032;5.866;2024-03-02T10:59:03;13.26;55.31
68556;HTU21D;55544;51.032;5.866;2024-03-02T11:01:32;13.35;55.20
68556;HTU21D;55544;51.032;5.866;2024-03-02T11:03:59;13.69;54.74
68556;HTU21D;55544;51.032;5.866;2024-03-02T11:06:28;13.85;52.72
68556;HTU21D;55544;51.032;5.866;2024-03-02T11:09:00;13.98;54.30
68556;HTU21D;55544;51.032;5.866;2024-03-02T11:11:32;13.96;53.23
68556;HTU21D;55544;51.032;5.866;2024-03-02T11:14:01;14.00;54.27
68556;HTU21D;55544;51.032;5.866;2024-03-02T11:16:35;14.01;54.23
68556;HTU21D;55544;51.032;5.866;2024-03-02T11:19:13;14.03;53.44
68556;HTU21D;55544;51.032;5.866;2024-03-02T11:21:41;14.01;54.06
68556;HTU21D;55544;51.032;5.866;2024-03-02T11:26:54;14.07;52.88
68556;HTU21D;55544;51.032;5.866;2024-03-02T11:29:42;14.25;52.80
68556;HTU21D;55544;51.032;5.866;2024-03-02T11:32:21;14.32;52.11
68556;HTU21D;55544;51.032;5.866;2024-03-02T11:34:49;14.38;51.95
68556;HTU21D;55544;51.032;5.866;2024-03-02T11:37:17;14.35;51.42
68556;HTU21D;55544;51.032;5.866;2024-03-02T11:39:44;14.44;51.95
68556;HTU21D;55544;51.032;5.866;2024-03-02T11:42:14;14.55;51.80
68556;HTU21D;55544;51.032;5.866;2024-03-02T11:44:43;14.60;51.63
68556;HTU21D;55544;51.032;5.866;2024-03-02T11:47:12;14.64;49.44
68556;HTU21D;55544;51.032;5.866;2024-03-02T11:49:42;14.83;51.27
68556;HTU21D;55544;51.032;5.866;2024-03-02T11:52:10;14.82;49.63
68556;HTU21D;55544;51.032;5.866;2024-03-02T11:54:42;14.91;49.29
68556;HTU21D;55544;51.032;5.866;2024-03-02T11:57:21;14.83;48.99
68556;HTU21D;55544;51.032;5.866;2024-03-02T11:59:50;14.95;47.83
68556;HTU21D;55544;51.032;5.866;2024-03-02T12:02:19;15.04;50.21
68556;HTU21D;55544;51.032;5.866;2024-03-02T12:04:47;15.21;50.77
68556;HTU21D;55544;51.032;5.866;2024-03-02T12:07:23;15.36;49.15
68556;HTU21D;55544;51.032;5.866;2024-03-02T12:09:59;15.58;48.92
68556;HTU21D;55544;51.032;5.866;2024-03-02T12:12:25;15.62;47.86
68556;HTU21D;55544;51.032;5.866;2024-03-02T12:14:53;15.63;49.23
68556;HTU21D;55544;51.032;5.866;2024-03-02T12:17:21;15.72;46.97
68556;HTU21D;55544;51.032;5.866;2024-03-02T12:19:48;15.83;48.72
68556;HTU21D;55544;51.032;5.866;2024-03-02T12:22:14;16.02;49.01
68556;HTU21D;55544;51.032;5.866;2024-03-02T12:24:42;16.15;49.16
68556;HTU21D;55544;51.032;5.866;2024-03-02T12:27:12;16.15;48.02
68556;HTU21D;55544;51.032;5.866;2024-03-02T12:29:38;16.07;48.81
68556;HTU21D;55544;51.032;5.866;2024-03-02T12:32:05;16.02;47.50
68556;HTU21D;55544;51.032;5.866;2024-03-02T12:34:32;15.84;47.36
68556;HTU21D;55544;51.032;5.866;2024-03-02T12:36:58;15.61;48.55
68556;HTU21D;55544;51.032;5.866;2024-03-02T12:39:24;15.70;48.79
68556;HTU21D;55544;51.032;5.866;2024-03-02T12:41:51;15.75;49.24
68556;HTU21D;55544;51.032;5.866;2024-03-02T12:44:17;15.91;48.93
68556;HTU21D;55544;51.032;5.866;2024-03-02T12:46:44;15.92;48.57
68556;HTU21D;55544;51.032;5.866;2024-03-02T12:49:12;16.06;47.99
68556;HTU21D;55544;51.032;5.866;2024-03-02T12:51:42;15.82;48.82
68556;HTU21D;55544;51.032;5.866;2024-03-02T12:54:09;15.77;49.27
68556;HTU21D;55544;51.032;5.866;2024-03-02T12:56:40;16.05;49.42
68556;HTU21D;55544;51.032;5.866;2024-03-02T12:59:07;16.39;48.75
68556;HTU21D;55544;51.032;5.866;2024-03-02T13:01:36;16.51;48.24
68556;HTU21D;55544;51.032;5.866;2024-03-02T13:04:02;16.57;47.60
68556;HTU21D;55544;51.032;5.866;2024-03-02T13:06:29;16.66;48.30
68556;HTU21D;55544;51.032;5.866;2024-03-02T13:08:55;16.71;47.54
68556;HTU21D;55544;51.032;5.866;2024-03-02T13:11:22;16.87;46.93
68556;HTU21D;55544;51.032;5.866;2024-03-02T13:13:49;16.95;45.73
68556;HTU21D;55544;51.032;5.866;2024-03-02T13:16:16;16.78;46.31
68556;HTU21D;55544;51.032;5.866;2024-03-02T13:18:44;16.77;47.62
68556;HTU21D;55544;51.032;5.866;2024-03-02T13:21:10;16.77;46.70
68556;HTU21D;55544;51.032;5.866;2024-03-02T13:23:35;16.92;47.36
68556;HTU21D;55544;51.032;5.866;2024-03-02T13:26:02;16.99;46.54
68556;HTU21D;55544;51.032;5.866;2024-03-02T13:28:28;16.61;46.64
68556;HTU21D;55544;51.032;5.866;2024-03-02T13:30:53;16.42;47.38
68556;HTU21D;55544;51.032;5.866;2024-03-02T13:33:19;16.14;48.50
68556;HTU21D;55544;51.032;5.866;2024-03-02T13:35:51;16.10;47.34
68556;HTU21D;55544;51.032;5.866;2024-03-02T13:38:19;15.93;48.86
68556;HTU21D;55544;51.032;5.866;2024-03-02T13:40:45;15.89;48.99
68556;HTU21D;55544;51.032;5.866;2024-03-02T13:43:11;15.89;48.97
68556;HTU21D;55544;51.032;5.866;2024-03-02T13:45:38;15.75;48.61
68556;HTU21D;55544;51.032;5.866;2024-03-02T13:48:04;15.69;48.91
68556;HTU21D;55544;51.032;5.866;2024-03-02T13:50:30;15.78;49.53
68556;HTU21D;55544;51.032;5.866;2024-03-02T13:52:56;16.01;48.66
68556;HTU21D;55544;51.032;5.866;2024-03-02T13:55:22;16.26;48.94
68556;HTU21D;55544;51.032;5.866;2024-03-02T13:57:48;16.55;47.90
68556;HTU21D;55544;51.032;5.866;2024-03-02T14:00:18;16.92;47.92
68556;HTU21D;55544;51.032;5.866;2024-03-02T14:02:46;17.05;45.55
68556;HTU21D;55544;51.032;5.866;2024-03-02T14:05:12;17.02;44.93
68556;HTU21D;55544;51.032;5.866;2024-03-02T14:07:40;16.95;45.63
68556;HTU21D;55544;51.032;5.866;2024-03-02T14:10:06;16.98;47.14
68556;HTU21D;55544;51.032;5.866;2024-03-02T14:12:32;16.95;47.41
68556;HTU21D;55544;51.032;5.866;2024-03-02T14:14:58;16.77;46.08
68556;HTU21D;55544;51.032;5.866;2024-03-02T14:17:25;16.62;48.48
68556;HTU21D;55544;51.032;5.866;2024-03-02T14:19:51;16.52;47.31
68556;HTU21D;55544;51.032;5.866;2024-03-02T14:22:19;16.31;48.70
68556;HTU21D;55544;51.032;5.866;2024-03-02T14:24:45;16.69;48.95
68556;HTU21D;55544;51.032;5.866;2024-03-02T14:27:12;16.76;47.34
68556;HTU21D;55544;51.032;5.866;2024-03-02T14:29:41;16.81;47.45
68556;HTU21D;55544;51.032;5.866;2024-03-02T14:32:06;16.67;0.00
68556;HTU21D;55544;51.032;5.866;2024-03-02T14:34:32;16.58;47.80
68556;HTU21D;55544;51.032;5.866;2024-03-02T14:36:59;16.65;47.19
68556;HTU21D;55544;51.032;5.866;2024-03-02T14:39:25;16.51;48.38
68556;HTU21D;55544;51.032;5.866;2024-03-02T14:41:51;16.62;47.70
68556;HTU21D;55544;51.032;5.866;2024-03-02T14:44:17;16.44;48.44
68556;HTU21D;55544;51.032;5.866;2024-03-02T14:46:46;16.34;50.40
68556;HTU21D;55544;51.032;5.866;2024-03-02T14:49:12;16.25;49.40
68556;HTU21D;55544;51.032;5.866;2024-03-02T14:51:38;16.21;50.38
68556;HTU21D;55544;51.032;5.866;2024-03-02T14:54:04;16.13;50.51
68556;HTU21D;55544;51.032;5.866;2024-03-02T14:56:30;16.17;50.32
68556;HTU21D;55544;51.032;5.866;2024-03-02T14:58:56;16.13;50.89
68556;HTU21D;55544;51.032;5.866;2024-03-02T15:01:22;16.12;50.51
68556;HTU21D;55544;51.032;5.866;2024-03-02T15:03:51;16.05;51.72
68556;HTU21D;55544;51.032;5.866;2024-03-02T15:06:17;16.04;52.16
68556;HTU21D;55544;51.032;5.866;2024-03-02T15:08:43;16.22;51.12
68556;HTU21D;55544;51.032;5.866;2024-03-02T15:11:12;16.39;51.04
68556;HTU21D;55544;51.032;5.866;2024-03-02T15:13:38;16.58;50.80
68556;HTU21D;55544;51.032;5.866;2024-03-02T15:16:04;16.21;50.40
68556;HTU21D;55544;51.032;5.866;2024-03-02T15:18:30;16.04;50.93
68556;HTU21D;55544;51.032;5.866;2024-03-02T15:20:56;16.05;50.18
68556;HTU21D;55544;51.032;5.866;2024-03-02T15:23:22;15.87;48.83
68556;HTU21D;55544;51.032;5.866;2024-03-02T15:25:47;15.80;50.60
68556;HTU21D;55544;51.032;5.866;2024-03-02T15:28:13;15.67;50.40